Terminal Aerodrome Forecast
Issued by NWS

Home | Current Version | Previous Version | Text Only | Print | Product List | Glossary Off
Versions: 1 2 3 4 5 6 7 8 9 10 11 12 13 14 15 16 17 18 19
000 FTUS41 KBOX 250536 TAFFMH TAF KFMH 250536Z 2506/2606 32005KT P6SM BKN025 FM251200 28007KT P6SM SCT080 FM260200 23011KT P6SM BKN080=

USA.gov is the U.S. government's official web portal to all federal, state and local government web resources and services.